Time;durP1;ratioP1;P1;durP2;ratioP2;P2;SDS_P1;SDS_P2;PMS_P1;PMS_P2;Temp;Humidity;BMP_temperature;BMP_pressure;BME280_temperature;BME280_humidity;BME280_pressure;Samples;Min_cycle;Max_cycle;Signal;HPM_P1;HPM_P2
2021/12/02 00:00:36;;;;;;;8.60;3.08;;;;;;;;;;5045755;28;20041;-66
2021/12/02 00:03:04;;;;;;;7.57;2.67;;;;;;;;;;5046767;28;20037;-66
2021/12/02 00:05:30;;;;;;;8.57;2.50;;;;;;;;;;5046538;28;20039;-66
2021/12/02 00:07:55;;;;;;;4.65;2.15;;;;;;;;;;5040946;28;20045;-66
2021/12/02 00:10:26;;;;;;;6.43;2.10;;;;;;;;;;5044876;28;20056;-66
2021/12/02 00:12:54;;;;;;;9.40;2.30;;;;;;;;;;5028194;28;20079;-66
2021/12/02 00:15:23;;;;;;;8.23;1.98;;;;;;;;;;5037780;28;20041;-66
2021/12/02 00:17:55;;;;;;;3.88;1.80;;;;;;;;;;5024634;28;20044;-66
2021/12/02 00:23:37;;;;;;;4.63;1.60;;;;;;;;;;5045628;28;20055;-66
2021/12/02 00:26:15;;;;;;;3.35;2.05;;;;;;;;;;5031852;28;20032;-66
2021/12/02 00:28:40;;;;;;;4.75;1.70;;;;;;;;;;5024851;28;20041;-66
2021/12/02 00:31:13;;;;;;;2.70;1.50;;;;;;;;;;5026669;28;20055;-66
2021/12/02 00:33:43;;;;;;;2.88;1.00;;;;;;;;;;5035683;28;20549;-66
2021/12/02 00:36:09;;;;;;;3.50;1.27;;;;;;;;;;5030614;28;20069;-66
2021/12/02 00:38:34;;;;;;;4.25;1.20;;;;;;;;;;5039653;28;20064;-66
2021/12/02 00:41:00;;;;;;;4.82;1.42;;;;;;;;;;5041620;28;20087;-66
2021/12/02 00:43:26;;;;;;;8.85;1.35;;;;;;;;;;5040700;28;20113;-66
2021/12/02 00:45:52;;;;;;;4.82;1.27;;;;;;;;;;5044595;28;20052;-66
2021/12/02 00:48:17;;;;;;;3.60;1.38;;;;;;;;;;5047082;28;20033;-66
2021/12/02 00:50:48;;;;;;;3.80;1.20;;;;;;;;;;5048955;28;20033;-66
2021/12/02 00:53:17;;;;;;;5.28;1.50;;;;;;;;;;5047742;28;20151;-66
2021/12/02 00:55:43;;;;;;;4.57;1.30;;;;;;;;;;5041799;28;20061;-66
2021/12/02 00:58:11;;;;;;;5.72;1.92;;;;;;;;;;5027682;28;20060;-66
2021/12/02 01:00:37;;;;;;;3.28;1.02;;;;;;;;;;5047757;28;20052;-66
2021/12/02 01:03:03;;;;;;;5.68;1.25;;;;;;;;;;5049207;28;20120;-66
2021/12/02 01:05:30;;;;;;;6.18;1.10;;;;;;;;;;5049773;28;20111;-67
2021/12/02 01:07:59;;;;;;;2.17;0.85;;;;;;;;;;5028800;28;20452;-66
2021/12/02 01:10:24;;;;;;;2.38;0.70;;;;;;;;;;5049851;28;20029;-66
2021/12/02 01:12:50;;;;;;;3.65;0.88;;;;;;;;;;5049454;28;20037;-67
2021/12/02 01:15:16;;;;;;;2.67;0.75;;;;;;;;;;5047905;28;20037;-66
2021/12/02 01:17:41;;;;;;;4.85;1.10;;;;;;;;;;5048366;28;20049;-67
2021/12/02 01:20:08;;;;;;;1.70;0.80;;;;;;;;;;5046915;28;20026;-66
2021/12/02 01:22:37;;;;;;;4.32;0.88;;;;;;;;;;5049077;28;20028;-66
2021/12/02 01:25:05;;;;;;;8.43;1.27;;;;;;;;;;5048491;28;20033;-66
2021/12/02 01:27:34;;;;;;;2.00;0.88;;;;;;;;;;5047410;28;20127;-66
2021/12/02 01:30:00;;;;;;;2.08;0.70;;;;;;;;;;5047188;28;20041;-66
2021/12/02 01:32:26;;;;;;;6.95;1.13;;;;;;;;;;5050054;28;20496;-66
2021/12/02 01:34:52;;;;;;;9.23;1.55;;;;;;;;;;5031066;28;20037;-66
2021/12/02 01:37:18;;;;;;;3.25;0.50;;;;;;;;;;5041180;28;20120;-66
2021/12/02 01:39:44;;;;;;;1.30;1.13;;;;;;;;;;5047052;28;20116;-67
2021/12/02 01:42:15;;;;;;;3.72;0.70;;;;;;;;;;5046422;28;20066;-66
2021/12/02 01:44:41;;;;;;;2.70;0.77;;;;;;;;;;5043251;28;20025;-66
2021/12/02 01:47:12;;;;;;;5.88;0.70;;;;;;;;;;5046676;28;20025;-66
2021/12/02 01:49:41;;;;;;;4.05;0.60;;;;;;;;;;5047097;28;20035;-66
2021/12/02 01:52:10;;;;;;;5.38;0.93;;;;;;;;;;5047441;28;20036;-66
2021/12/02 01:54:43;;;;;;;2.53;0.43;;;;;;;;;;5047201;28;20049;-66
2021/12/02 01:57:36;;;;;;;5.10;1.73;;;;;;;;;;5046118;28;20051;-66
2021/12/02 02:00:06;;;;;;;5.32;1.30;;;;;;;;;;5042492;28;20029;-66
2021/12/02 02:02:35;;;;;;;2.60;0.80;;;;;;;;;;5045486;28;20516;-66
2021/12/02 02:05:01;;;;;;;1.63;0.63;;;;;;;;;;5046690;28;20056;-66
2021/12/02 02:07:27;;;;;;;3.20;0.77;;;;;;;;;;5032220;28;20199;-66
2021/12/02 02:09:52;;;;;;;1.65;0.47;;;;;;;;;;5045804;28;20110;-67
2021/12/02 02:12:19;;;;;;;2.05;0.90;;;;;;;;;;5049292;28;20041;-67
2021/12/02 02:14:45;;;;;;;1.45;0.75;;;;;;;;;;5044628;28;20579;-67
2021/12/02 02:17:22;;;;;;;7.03;0.90;;;;;;;;;;5047198;28;20059;-66
2021/12/02 02:19:48;;;;;;;6.38;1.00;;;;;;;;;;5032793;28;20041;-66
2021/12/02 02:22:19;;;;;;;8.25;1.00;;;;;;;;;;5025784;28;20401;-66
2021/12/02 02:24:44;;;;;;;6.75;1.20;;;;;;;;;;5045821;28;20097;-66
2021/12/02 02:27:10;;;;;;;9.27;1.20;;;;;;;;;;5041826;28;20028;-67
2021/12/02 02:29:35;;;;;;;4.78;1.30;;;;;;;;;;5045687;28;20082;-66
2021/12/02 02:32:01;;;;;;;6.35;1.17;;;;;;;;;;5042896;28;20406;-67
2021/12/02 02:34:26;;;;;;;3.00;1.13;;;;;;;;;;5041948;28;20029;-67
2021/12/02 02:36:54;;;;;;;8.77;1.48;;;;;;;;;;5043378;28;20147;-67
2021/12/02 02:39:21;;;;;;;9.95;1.90;;;;;;;;;;5047033;28;20530;-66
2021/12/02 02:41:53;;;;;;;9.98;2.58;;;;;;;;;;5044434;28;20048;-66
2021/12/02 02:44:19;;;;;;;8.05;1.92;;;;;;;;;;5028112;28;20056;-66
2021/12/02 02:46:45;;;;;;;6.35;1.45;;;;;;;;;;5046708;28;20033;-66
2021/12/02 02:49:12;;;;;;;3.38;1.13;;;;;;;;;;5038772;28;20414;-66
2021/12/02 02:51:39;;;;;;;5.40;1.02;;;;;;;;;;5040684;28;20053;-67
2021/12/02 02:54:07;;;;;;;1.23;0.80;;;;;;;;;;5048831;28;20051;-67
2021/12/02 02:56:42;;;;;;;5.40;1.40;;;;;;;;;;5043809;28;20012;-66
2021/12/02 03:07:24;;;;;;;2.40;0.80;;;;;;;;;;5044060;28;20560;-66
2021/12/02 03:12:32;;;;;;;4.70;0.75;;;;;;;;;;5047060;28;20446;-66
2021/12/02 03:17:26;;;;;;;7.30;1.33;;;;;;;;;;5048305;28;20029;-66
2021/12/02 03:19:52;;;;;;;9.88;1.90;;;;;;;;;;5048621;28;20091;-66
2021/12/02 03:22:17;;;;;;;13.80;1.75;;;;;;;;;;5047675;28;20052;-66
2021/12/02 03:24:43;;;;;;;9.90;2.03;;;;;;;;;;5045902;28;20040;-66
2021/12/02 03:27:09;;;;;;;14.35;1.80;;;;;;;;;;5043175;28;20039;-66
2021/12/02 03:29:35;;;;;;;9.70;1.58;;;;;;;;;;5048214;28;20029;-67
2021/12/02 03:32:01;;;;;;;8.15;1.55;;;;;;;;;;5047975;28;20502;-67
2021/12/02 03:34:26;;;;;;;4.05;1.10;;;;;;;;;;5029034;28;20063;-66
2021/12/02 03:36:52;;;;;;;2.30;0.82;;;;;;;;;;5048903;28;20421;-66
2021/12/02 03:39:18;;;;;;;4.03;0.82;;;;;;;;;;5048502;28;20379;-67
2021/12/02 03:41:44;;;;;;;0.95;0.40;;;;;;;;;;5048155;28;20072;-66
2021/12/02 03:44:10;;;;;;;1.95;0.77;;;;;;;;;;5042894;28;20017;-66
2021/12/02 03:46:37;;;;;;;5.25;0.60;;;;;;;;;;5043711;28;20065;-66
2021/12/02 03:49:03;;;;;;;0.65;0.43;;;;;;;;;;5030539;28;20063;-66
2021/12/02 03:51:28;;;;;;;1.65;0.73;;;;;;;;;;5048877;28;20436;-66
2021/12/02 03:53:54;;;;;;;1.50;0.47;;;;;;;;;;5047959;28;20047;-66
2021/12/02 03:56:20;;;;;;;2.35;0.50;;;;;;;;;;5049394;28;20021;-67
2021/12/02 03:58:47;;;;;;;1.17;0.50;;;;;;;;;;5047149;28;20048;-66
2021/12/02 04:01:14;;;;;;;0.93;0.40;;;;;;;;;;5046459;28;20116;-66
2021/12/02 04:03:40;;;;;;;2.05;0.50;;;;;;;;;;5047935;28;20037;-66
2021/12/02 04:06:07;;;;;;;3.08;0.60;;;;;;;;;;5045470;28;20041;-66
2021/12/02 04:13:44;;;;;;;1.80;0.52;;;;;;;;;;5045947;28;20030;-67
2021/12/02 04:16:15;;;;;;;4.93;0.70;;;;;;;;;;5048286;28;20580;-66
2021/12/02 04:18:41;;;;;;;4.32;0.80;;;;;;;;;;5051173;28;20060;-67
2021/12/02 04:21:06;;;;;;;1.48;0.63;;;;;;;;;;5028216;28;20402;-67
2021/12/02 04:23:31;;;;;;;3.53;0.65;;;;;;;;;;5047007;28;20102;-66
2021/12/02 04:25:56;;;;;;;7.05;0.90;;;;;;;;;;5046708;28;20052;-66
2021/12/02 04:28:22;;;;;;;2.95;0.55;;;;;;;;;;5050836;28;20033;-66
2021/12/02 04:30:47;;;;;;;1.42;0.68;;;;;;;;;;5052203;28;20037;-67
2021/12/02 04:33:12;;;;;;;5.28;0.80;;;;;;;;;;5050696;28;20025;-66
2021/12/02 04:35:38;;;;;;;1.45;0.47;;;;;;;;;;5045757;28;20056;-66
2021/12/02 04:38:03;;;;;;;0.85;0.40;;;;;;;;;;5048631;28;20486;-66
2021/12/02 04:40:29;;;;;;;1.27;0.52;;;;;;;;;;5050059;28;20131;-66
2021/12/02 04:42:54;;;;;;;0.50;0.40;;;;;;;;;;5047665;28;20040;-66
2021/12/02 04:45:19;;;;;;;0.68;0.50;;;;;;;;;;5029657;28;20055;-66
2021/12/02 04:47:45;;;;;;;1.13;0.60;;;;;;;;;;5049183;28;20143;-66
2021/12/02 04:50:11;;;;;;;0.30;0.30;;;;;;;;;;5050914;28;20028;-66
2021/12/02 04:52:36;;;;;;;1.55;0.57;;;;;;;;;;5044228;28;20040;-66
2021/12/02 04:55:03;;;;;;;1.05;0.68;;;;;;;;;;5040985;28;20510;-67
2021/12/02 04:57:28;;;;;;;2.63;0.55;;;;;;;;;;5043773;28;20044;-66
2021/12/02 04:59:54;;;;;;;4.47;1.48;;;;;;;;;;5048992;28;20029;-66
2021/12/02 05:02:19;;;;;;;3.58;1.02;;;;;;;;;;5051625;28;20556;-66
2021/12/02 05:04:44;;;;;;;6.10;1.27;;;;;;;;;;5049820;28;20067;-66
2021/12/02 05:07:10;;;;;;;4.93;1.13;;;;;;;;;;5040066;28;20112;-66
2021/12/02 05:09:35;;;;;;;5.38;1.70;;;;;;;;;;5031123;28;20691;-66
2021/12/02 05:12:00;;;;;;;3.55;0.90;;;;;;;;;;5037400;28;20033;-66
2021/12/02 05:14:26;;;;;;;7.15;1.80;;;;;;;;;;5052285;28;20111;-66
2021/12/02 05:16:51;;;;;;;3.58;1.30;;;;;;;;;;5049711;28;20391;-66
2021/12/02 05:19:17;;;;;;;2.97;0.82;;;;;;;;;;5049666;28;20592;-66
2021/12/02 05:21:42;;;;;;;0.88;0.52;;;;;;;;;;5045998;28;20037;-66
2021/12/02 05:24:07;;;;;;;5.88;0.90;;;;;;;;;;5044351;28;20036;-66
2021/12/02 05:26:34;;;;;;;2.70;0.80;;;;;;;;;;5047715;28;20107;-66
2021/12/02 05:28:59;;;;;;;1.05;0.60;;;;;;;;;;5050113;28;20048;-66
2021/12/02 05:31:25;;;;;;;1.73;0.68;;;;;;;;;;5042592;28;20033;-66
2021/12/02 05:33:50;;;;;;;2.33;0.60;;;;;;;;;;5032428;28;20091;-66
2021/12/02 05:36:16;;;;;;;2.05;0.60;;;;;;;;;;5048347;28;20041;-66
2021/12/02 05:38:41;;;;;;;1.58;0.60;;;;;;;;;;5041222;28;20021;-66
2021/12/02 05:41:07;;;;;;;2.97;0.57;;;;;;;;;;5048730;28;20191;-66
2021/12/02 05:43:33;;;;;;;1.27;0.63;;;;;;;;;;5031510;28;20033;-66
2021/12/02 05:45:59;;;;;;;0.85;0.32;;;;;;;;;;5049541;28;20036;-66
2021/12/02 05:48:25;;;;;;;2.85;0.70;;;;;;;;;;5041503;28;20037;-66
2021/12/02 05:50:50;;;;;;;0.40;0.30;;;;;;;;;;5049242;28;20029;-66
2021/12/02 05:53:16;;;;;;;3.65;0.40;;;;;;;;;;5050048;28;20025;-66
2021/12/02 05:55:42;;;;;;;4.35;1.23;;;;;;;;;;5047519;28;20045;-66
2021/12/02 05:58:07;;;;;;;9.65;1.00;;;;;;;;;;5047698;28;20060;-66
2021/12/02 06:00:34;;;;;;;1.92;0.88;;;;;;;;;;5045640;28;20025;-66
2021/12/02 06:03:00;;;;;;;4.10;0.98;;;;;;;;;;5053652;28;20040;-67
2021/12/02 06:05:27;;;;;;;4.18;0.75;;;;;;;;;;5041663;28;20026;-66
2021/12/02 06:07:56;;;;;;;5.28;0.90;;;;;;;;;;5035159;28;20044;-66
2021/12/02 06:10:21;;;;;;;3.67;0.85;;;;;;;;;;5046703;28;20033;-67
2021/12/02 06:12:47;;;;;;;10.30;1.30;;;;;;;;;;5043824;28;20439;-66
2021/12/02 06:15:12;;;;;;;2.75;0.70;;;;;;;;;;5038811;28;20037;-67
2021/12/02 06:17:38;;;;;;;2.85;0.85;;;;;;;;;;5041325;28;20017;-66
2021/12/02 06:20:05;;;;;;;5.53;1.20;;;;;;;;;;5047594;28;20036;-66
2021/12/02 06:22:30;;;;;;;11.25;1.40;;;;;;;;;;5030300;28;20498;-66
2021/12/02 06:27:41;;;;;;;7.90;1.20;;;;;;;;;;5047709;28;20025;-67
2021/12/02 06:30:07;;;;;;;6.97;1.33;;;;;;;;;;5049658;28;20037;-66
2021/12/02 06:32:32;;;;;;;2.40;1.10;;;;;;;;;;5032301;28;20533;-67
2021/12/02 06:34:58;;;;;;;2.95;1.30;;;;;;;;;;5047892;28;20506;-66
2021/12/02 06:37:23;;;;;;;2.10;0.90;;;;;;;;;;5049498;28;20033;-66
2021/12/02 06:39:49;;;;;;;8.00;1.50;;;;;;;;;;5044806;28;20041;-67
2021/12/02 06:42:15;;;;;;;8.35;1.58;;;;;;;;;;5046831;28;20510;-66
2021/12/02 06:44:40;;;;;;;2.90;0.85;;;;;;;;;;5047489;28;20100;-66
2021/12/02 06:47:06;;;;;;;1.40;0.80;;;;;;;;;;5048646;28;20029;-67
2021/12/02 06:49:33;;;;;;;3.22;0.60;;;;;;;;;;5047201;28;20461;-66
2021/12/02 06:51:59;;;;;;;3.60;0.60;;;;;;;;;;5048464;28;20025;-66
2021/12/02 06:54:24;;;;;;;1.40;0.40;;;;;;;;;;5048154;28;20040;-66
2021/12/02 06:56:50;;;;;;;4.45;0.80;;;;;;;;;;5041908;28;20071;-66
2021/12/02 06:59:16;;;;;;;0.52;0.32;;;;;;;;;;5043897;28;20025;-67
2021/12/02 07:01:42;;;;;;;1.23;0.50;;;;;;;;;;5047155;28;20417;-67
2021/12/02 07:04:08;;;;;;;2.33;0.40;;;;;;;;;;5048383;28;20571;-67
2021/12/02 07:06:36;;;;;;;1.50;0.70;;;;;;;;;;5030096;28;20025;-67
2021/12/02 07:09:02;;;;;;;1.23;0.60;;;;;;;;;;5048706;28;20443;-67
2021/12/02 07:11:27;;;;;;;1.80;0.45;;;;;;;;;;5049050;28;20064;-66
2021/12/02 07:13:59;;;;;;;2.10;0.50;;;;;;;;;;5045321;28;20132;-67
2021/12/02 07:16:25;;;;;;;4.80;0.98;;;;;;;;;;5050409;28;20405;-67
2021/12/02 07:18:55;;;;;;;6.93;0.60;;;;;;;;;;5044674;28;20025;-66
2021/12/02 07:21:20;;;;;;;2.42;0.50;;;;;;;;;;5043903;28;20442;-66
2021/12/02 07:23:45;;;;;;;0.60;0.50;;;;;;;;;;5039382;28;20021;-66
2021/12/02 07:26:11;;;;;;;7.20;0.70;;;;;;;;;;5048670;28;20040;-66
2021/12/02 07:28:36;;;;;;;1.70;0.65;;;;;;;;;;5045620;28;20041;-66
2021/12/02 07:31:04;;;;;;;3.58;0.70;;;;;;;;;;5038923;28;20032;-66
2021/12/02 07:33:35;;;;;;;2.05;0.88;;;;;;;;;;5045769;28;20518;-66
2021/12/02 07:36:01;;;;;;;3.25;0.77;;;;;;;;;;5029986;28;20040;-65
2021/12/02 07:38:26;;;;;;;3.70;0.85;;;;;;;;;;5027816;28;20083;-66
2021/12/02 07:40:52;;;;;;;5.68;1.00;;;;;;;;;;5044200;28;20534;-66
2021/12/02 07:43:20;;;;;;;3.33;0.80;;;;;;;;;;5045947;28;20398;-66
2021/12/02 07:45:45;;;;;;;2.90;0.80;;;;;;;;;;5038546;28;20037;-66
2021/12/02 07:48:14;;;;;;;4.07;1.20;;;;;;;;;;5044958;28;20047;-66
2021/12/02 07:50:39;;;;;;;4.30;1.00;;;;;;;;;;5034825;28;20429;-65
2021/12/02 07:53:08;;;;;;;2.60;0.88;;;;;;;;;;5033650;28;20094;-66
2021/12/02 07:55:39;;;;;;;2.90;1.00;;;;;;;;;;5052333;28;20099;-66
2021/12/02 07:58:08;;;;;;;7.22;1.52;;;;;;;;;;5037480;28;20091;-66
2021/12/02 08:00:34;;;;;;;4.50;0.93;;;;;;;;;;5049446;28;20037;-66
2021/12/02 08:03:00;;;;;;;4.38;1.58;;;;;;;;;;5028337;28;20415;-69
2021/12/02 08:05:26;;;;;;;4.75;0.93;;;;;;;;;;5043500;28;20490;-67
2021/12/02 08:07:53;;;;;;;3.67;1.38;;;;;;;;;;5026577;28;20186;-68
2021/12/02 08:10:19;;;;;;;1.42;0.60;;;;;;;;;;5047866;28;20068;-67
2021/12/02 08:12:50;;;;;;;1.55;1.08;;;;;;;;;;5047252;28;20037;-68
2021/12/02 08:15:22;;;;;;;4.10;0.93;;;;;;;;;;5050645;28;20043;-71
2021/12/02 08:17:48;;;;;;;1.67;0.80;;;;;;;;;;5047004;28;20100;-69
2021/12/02 08:20:15;;;;;;;1.73;0.70;;;;;;;;;;5045744;28;20092;-69
2021/12/02 08:22:40;;;;;;;3.08;0.57;;;;;;;;;;5035432;28;20060;-70
2021/12/02 08:25:06;;;;;;;2.97;0.90;;;;;;;;;;5039261;28;20411;-68
2021/12/02 08:27:32;;;;;;;3.25;0.70;;;;;;;;;;5027831;28;20033;-71
2021/12/02 08:29:57;;;;;;;2.08;0.70;;;;;;;;;;5042947;28;20028;-70
2021/12/02 08:32:22;;;;;;;2.90;0.40;;;;;;;;;;5027124;28;20477;-70
2021/12/02 08:34:48;;;;;;;0.65;0.40;;;;;;;;;;5030360;28;20076;-67
2021/12/02 08:37:14;;;;;;;3.35;0.80;;;;;;;;;;5036774;28;20065;-67
2021/12/02 08:39:41;;;;;;;2.95;1.30;;;;;;;;;;5025421;28;22170;-67
2021/12/02 08:42:08;;;;;;;7.43;1.55;;;;;;;;;;5031030;28;20405;-68
2021/12/02 08:44:37;;;;;;;4.82;1.02;;;;;;;;;;5061219;28;20052;-68
2021/12/02 08:47:04;;;;;;;2.78;0.90;;;;;;;;;;5033838;28;20037;-67
2021/12/02 08:49:29;;;;;;;8.60;1.17;;;;;;;;;;5044767;28;20388;-68
2021/12/02 08:51:54;;;;;;;3.65;1.13;;;;;;;;;;5043540;28;20627;-68
2021/12/02 08:54:20;;;;;;;5.43;0.90;;;;;;;;;;5040651;28;20072;-68
2021/12/02 08:56:45;;;;;;;7.65;1.45;;;;;;;;;;5045324;28;20099;-69
2021/12/02 08:59:11;;;;;;;2.88;1.00;;;;;;;;;;5042130;28;20116;-69
2021/12/02 09:01:37;;;;;;;6.15;1.23;;;;;;;;;;5043438;28;20099;-69
2021/12/02 09:04:03;;;;;;;3.88;1.10;;;;;;;;;;5039769;28;20092;-69
2021/12/02 09:06:29;;;;;;;3.40;1.20;;;;;;;;;;5039273;28;20060;-67
2021/12/02 09:08:57;;;;;;;5.88;1.38;;;;;;;;;;5041896;28;20025;-69
2021/12/02 09:11:22;;;;;;;6.10;1.70;;;;;;;;;;5036981;28;20032;-69
2021/12/02 09:13:48;;;;;;;6.43;1.88;;;;;;;;;;5041611;28;20037;-68
2021/12/02 09:16:14;;;;;;;7.72;1.77;;;;;;;;;;5042768;28;20033;-69
2021/12/02 09:18:40;;;;;;;5.28;1.88;;;;;;;;;;5035954;28;20036;-68
2021/12/02 09:21:06;;;;;;;11.40;1.88;;;;;;;;;;5067260;28;20411;-66
2021/12/02 09:23:32;;;;;;;7.25;2.17;;;;;;;;;;5047908;28;20018;-68
2021/12/02 09:25:58;;;;;;;7.72;2.40;;;;;;;;;;5034831;28;20041;-66
2021/12/02 09:28:25;;;;;;;8.20;2.10;;;;;;;;;;5023570;28;20102;-67
2021/12/02 09:30:50;;;;;;;11.65;2.10;;;;;;;;;;5022457;28;20045;-67
2021/12/02 09:33:16;;;;;;;10.43;1.95;;;;;;;;;;5041646;28;20415;-69
2021/12/02 09:35:41;;;;;;;8.25;2.10;;;;;;;;;;5044994;28;20071;-68
2021/12/02 09:38:08;;;;;;;9.93;1.70;;;;;;;;;;5042186;28;20048;-66
2021/12/02 09:40:34;;;;;;;7.93;2.47;;;;;;;;;;5044396;28;20041;-64
2021/12/02 09:42:59;;;;;;;5.32;1.50;;;;;;;;;;5042201;28;20059;-66
2021/12/02 09:45:25;;;;;;;6.97;1.90;;;;;;;;;;5042962;28;20033;-66
2021/12/02 09:47:52;;;;;;;4.25;2.10;;;;;;;;;;5029759;28;20032;-66
2021/12/02 09:50:23;;;;;;;6.70;1.92;;;;;;;;;;5047548;28;20024;-66
2021/12/02 09:52:50;;;;;;;6.50;2.30;;;;;;;;;;5043032;28;20064;-66
2021/12/02 09:55:32;;;;;;;7.97;2.15;;;;;;;;;;5040912;28;20532;-66
2021/12/02 09:57:59;;;;;;;4.97;1.80;;;;;;;;;;5046343;28;20043;-66
2021/12/02 10:00:38;;;;;;;9.45;2.20;;;;;;;;;;5043786;28;20568;-66
2021/12/02 10:03:15;;;;;;;8.70;2.10;;;;;;;;;;5040935;28;20120;-66
2021/12/02 10:05:55;;;;;;;9.55;2.42;;;;;;;;;;5028901;28;20040;-66
2021/12/02 10:08:27;;;;;;;13.57;2.63;;;;;;;;;;5047259;28;20039;-66
2021/12/02 10:11:02;;;;;;;12.98;2.38;;;;;;;;;;5038389;28;20068;-66
2021/12/02 10:13:37;;;;;;;7.55;2.33;;;;;;;;;;5044460;28;20036;-68
2021/12/02 10:16:22;;;;;;;5.20;1.40;;;;;;;;;;5044651;28;20107;-67
2021/12/02 10:21:43;;;;;;;7.35;1.95;;;;;;;;;;5039499;28;20577;-67
2021/12/02 10:24:18;;;;;;;10.98;2.25;;;;;;;;;;5037913;28;20033;-67
2021/12/02 10:26:56;;;;;;;10.75;2.90;;;;;;;;;;5045227;28;20533;-68
2021/12/02 10:29:34;;;;;;;5.00;1.48;;;;;;;;;;5039585;28;20060;-67
2021/12/02 10:32:29;;;;;;;8.82;1.88;;;;;;;;;;5035889;28;20041;-67
2021/12/02 10:35:01;;;;;;;5.47;1.13;;;;;;;;;;5017640;28;20045;-67
2021/12/02 10:37:35;;;;;;;6.15;2.00;;;;;;;;;;5031883;28;20123;-67
2021/12/02 10:40:06;;;;;;;6.22;1.90;;;;;;;;;;5025005;28;20177;-67
2021/12/02 10:42:34;;;;;;;11.07;2.28;;;;;;;;;;5030449;28;20052;-67
2021/12/02 10:45:04;;;;;;;9.35;2.42;;;;;;;;;;5032571;28;21016;-67
2021/12/02 10:47:30;;;;;;;10.48;1.90;;;;;;;;;;5031860;28;20577;-66
2021/12/02 10:50:05;;;;;;;11.50;2.38;;;;;;;;;;5019142;28;20436;-69
2021/12/02 10:52:32;;;;;;;6.47;1.70;;;;;;;;;;5025844;28;20055;-67
2021/12/02 10:55:03;;;;;;;4.68;1.40;;;;;;;;;;5050000;28;20057;-67
2021/12/02 10:57:32;;;;;;;7.03;2.10;;;;;;;;;;5043326;28;20040;-69
2021/12/02 11:00:11;;;;;;;8.40;1.70;;;;;;;;;;5044972;28;20028;-68
2021/12/02 11:02:40;;;;;;;12.90;2.00;;;;;;;;;;5040822;28;20036;-68
2021/12/02 11:05:09;;;;;;;12.73;2.00;;;;;;;;;;5042155;28;20040;-68
2021/12/02 11:07:40;;;;;;;7.38;1.80;;;;;;;;;;5043046;28;20040;-67
2021/12/02 11:10:15;;;;;;;8.68;2.03;;;;;;;;;;5041189;28;20040;-67
2021/12/02 11:12:50;;;;;;;7.15;1.40;;;;;;;;;;5044510;28;20494;-67
2021/12/02 11:15:21;;;;;;;13.18;1.60;;;;;;;;;;5045845;28;20063;-68
2021/12/02 11:17:53;;;;;;;9.27;2.10;;;;;;;;;;5032890;28;20043;-65
2021/12/02 11:20:28;;;;;;;4.60;1.77;;;;;;;;;;5020967;28;20033;-66
2021/12/02 11:23:03;;;;;;;8.75;2.05;;;;;;;;;;5042761;28;20036;-66
2021/12/02 11:25:30;;;;;;;4.22;2.17;;;;;;;;;;5042322;28;20051;-67
2021/12/02 11:27:56;;;;;;;6.55;2.05;;;;;;;;;;5037261;28;20049;-67
2021/12/02 11:30:27;;;;;;;7.65;1.98;;;;;;;;;;5042934;28;20099;-67
2021/12/02 11:32:59;;;;;;;12.48;2.28;;;;;;;;;;5043549;28;20040;-67
2021/12/02 11:35:27;;;;;;;9.88;2.00;;;;;;;;;;5042970;28;20041;-67
2021/12/02 11:38:00;;;;;;;7.10;1.20;;;;;;;;;;5044185;28;20517;-71
2021/12/02 11:40:28;;;;;;;10.23;3.13;;;;;;;;;;5037207;28;20054;-66
2021/12/02 11:42:55;;;;;;;5.30;2.20;;;;;;;;;;5005776;28;20533;-67
2021/12/02 11:45:24;;;;;;;6.07;1.73;;;;;;;;;;5025761;28;20047;-67
2021/12/02 11:47:51;;;;;;;5.55;1.83;;;;;;;;;;5019274;28;20048;-67
2021/12/02 11:50:18;;;;;;;5.53;2.15;;;;;;;;;;5026189;28;20029;-67
2021/12/02 11:52:44;;;;;;;6.70;1.88;;;;;;;;;;5024641;28;20041;-68
2021/12/02 11:55:14;;;;;;;6.55;1.95;;;;;;;;;;5024739;28;20545;-66
2021/12/02 11:57:40;;;;;;;5.57;1.73;;;;;;;;;;5025211;28;20072;-72
2021/12/02 12:00:10;;;;;;;7.00;2.10;;;;;;;;;;5025668;28;20065;-68
2021/12/02 12:02:37;;;;;;;5.50;1.65;;;;;;;;;;5025824;28;20560;-67
2021/12/02 12:05:05;;;;;;;5.97;2.08;;;;;;;;;;5007241;28;20030;-67
2021/12/02 12:07:42;;;;;;;7.45;2.47;;;;;;;;;;5026136;28;20132;-67
2021/12/02 12:10:21;;;;;;;6.60;2.30;;;;;;;;;;5024380;28;20029;-68
2021/12/02 12:12:48;;;;;;;3.50;1.52;;;;;;;;;;5000324;28;20048;-69
2021/12/02 12:15:35;;;;;;;6.88;1.38;;;;;;;;;;5005009;28;20168;-68
2021/12/02 12:18:02;;;;;;;8.88;2.55;;;;;;;;;;5007220;28;20438;-69
2021/12/02 12:20:50;;;;;;;9.23;2.65;;;;;;;;;;5021700;28;20045;-66
2021/12/02 12:23:35;;;;;;;1.67;1.30;;;;;;;;;;5025349;28;20045;-66
2021/12/02 12:26:21;;;;;;;2.47;1.50;;;;;;;;;;5018718;28;20048;-67
2021/12/02 12:29:08;;;;;;;4.38;1.63;;;;;;;;;;5021340;28;20030;-66
2021/12/02 12:32:01;;;;;;;3.20;1.10;;;;;;;;;;5021515;28;20578;-69
2021/12/02 12:37:24;;;;;;;1.92;0.82;;;;;;;;;;5027693;28;20061;-69
2021/12/02 12:40:10;;;;;;;4.75;1.55;;;;;;;;;;5010606;28;20673;-69
2021/12/02 12:42:39;;;;;;;2.78;1.40;;;;;;;;;;5029829;28;20049;-70
2021/12/02 12:45:07;;;;;;;3.80;1.42;;;;;;;;;;5028175;28;20037;-68
2021/12/02 12:47:41;;;;;;;3.95;1.50;;;;;;;;;;5027203;28;20556;-70
2021/12/02 12:50:33;;;;;;;3.00;1.45;;;;;;;;;;5009945;28;20073;-70
2021/12/02 12:53:12;;;;;;;1.73;1.13;;;;;;;;;;5010469;28;20517;-69
2021/12/02 12:55:40;;;;;;;3.95;1.65;;;;;;;;;;5003059;28;20092;-68
2021/12/02 12:58:31;;;;;;;2.33;1.40;;;;;;;;;;5028403;28;20041;-69
2021/12/02 13:00:58;;;;;;;1.95;1.02;;;;;;;;;;5026122;28;20514;-72
2021/12/02 13:03:31;;;;;;;0.63;0.60;;;;;;;;;;5027819;28;20124;-71
2021/12/02 13:06:06;;;;;;;1.65;0.80;;;;;;;;;;5026712;28;20022;-68
2021/12/02 13:08:37;;;;;;;3.35;1.25;;;;;;;;;;5011619;28;20601;-68
2021/12/02 13:11:12;;;;;;;2.55;0.75;;;;;;;;;;5010841;28;20045;-68
2021/12/02 13:13:38;;;;;;;0.80;0.55;;;;;;;;;;5009499;28;20037;-68
2021/12/02 13:16:19;;;;;;;1.50;1.13;;;;;;;;;;5021213;28;20537;-68
2021/12/02 13:19:00;;;;;;;0.85;0.75;;;;;;;;;;5023317;28;20047;-68
2021/12/02 13:21:29;;;;;;;2.92;0.93;;;;;;;;;;5024522;28;20395;-69
2021/12/02 13:23:58;;;;;;;1.35;0.88;;;;;;;;;;5015550;28;20022;-68
2021/12/02 13:26:34;;;;;;;3.22;1.15;;;;;;;;;;5017613;28;20030;-68
2021/12/02 13:29:21;;;;;;;3.15;1.20;;;;;;;;;;5027499;28;20045;-68
2021/12/02 13:31:49;;;;;;;3.47;1.58;;;;;;;;;;5003604;28;20049;-68
2021/12/02 13:34:16;;;;;;;1.25;1.10;;;;;;;;;;5027066;28;20084;-68
2021/12/02 13:36:51;;;;;;;7.95;1.20;;;;;;;;;;5028064;28;20045;-68
2021/12/02 13:39:27;;;;;;;1.65;1.17;;;;;;;;;;5011552;28;20046;-68
2021/12/02 13:42:02;;;;;;;1.90;1.20;;;;;;;;;;5040475;28;20163;-68
2021/12/02 13:44:51;;;;;;;3.83;1.13;;;;;;;;;;5028334;28;20170;-68
2021/12/02 13:47:32;;;;;;;4.20;1.63;;;;;;;;;;5043795;28;20510;-68
2021/12/02 13:49:59;;;;;;;2.28;1.05;;;;;;;;;;5037390;28;20116;-68
2021/12/02 13:55:16;;;;;;;1.55;1.25;;;;;;;;;;5040298;28;20087;-68
2021/12/02 13:58:01;;;;;;;1.58;1.00;;;;;;;;;;5029263;28;20056;-68
2021/12/02 14:00:27;;;;;;;7.90;1.42;;;;;;;;;;5027471;28;20049;-68
2021/12/02 14:02:57;;;;;;;3.90;1.05;;;;;;;;;;5023906;28;20040;-68
2021/12/02 14:05:26;;;;;;;3.08;0.60;;;;;;;;;;5042932;28;20032;-72
2021/12/02 14:07:54;;;;;;;0.77;0.60;;;;;;;;;;5021890;28;20429;-71
2021/12/02 14:10:23;;;;;;;1.45;0.70;;;;;;;;;;5042565;28;20414;-70
2021/12/02 14:12:50;;;;;;;1.48;0.98;;;;;;;;;;5028086;28;20037;-69
2021/12/02 14:15:26;;;;;;;0.98;0.85;;;;;;;;;;5045400;28;20048;-70
2021/12/02 14:18:13;;;;;;;1.42;0.75;;;;;;;;;;5040957;28;20123;-70
2021/12/02 14:20:50;;;;;;;2.00;1.20;;;;;;;;;;5039132;28;20052;-70
2021/12/02 14:23:29;;;;;;;3.03;1.88;;;;;;;;;;5023790;28;20057;-68
2021/12/02 14:26:00;;;;;;;2.97;1.10;;;;;;;;;;5046638;28;20600;-67
2021/12/02 14:28:36;;;;;;;2.30;1.40;;;;;;;;;;5042396;28;20075;-66
2021/12/02 14:31:21;;;;;;;3.85;1.50;;;;;;;;;;5044732;28;20133;-71
2021/12/02 14:33:48;;;;;;;2.95;1.52;;;;;;;;;;5031118;28;20051;-72
2021/12/02 14:36:19;;;;;;;1.45;1.08;;;;;;;;;;5026687;28;20044;-70
2021/12/02 14:38:57;;;;;;;2.92;1.42;;;;;;;;;;5046325;28;20037;-71
2021/12/02 14:41:26;;;;;;;4.05;1.50;;;;;;;;;;5043740;28;20044;-72
2021/12/02 14:44:06;;;;;;;1.85;1.40;;;;;;;;;;5047391;28;20611;-72
2021/12/02 14:46:37;;;;;;;4.60;1.40;;;;;;;;;;5045674;28;20055;-72
2021/12/02 14:49:31;;;;;;;4.05;1.30;;;;;;;;;;5028928;28;20600;-72
2021/12/02 14:51:58;;;;;;;3.72;1.70;;;;;;;;;;5037348;28;20500;-70
2021/12/02 14:54:35;;;;;;;3.38;1.80;;;;;;;;;;5045046;28;20049;-73
2021/12/02 14:57:25;;;;;;;3.00;1.85;;;;;;;;;;5025382;28;20045;-72
2021/12/02 14:59:58;;;;;;;5.80;1.85;;;;;;;;;;5037543;28;20044;-73
2021/12/02 15:02:28;;;;;;;6.57;2.20;;;;;;;;;;5042816;28;20029;-74
2021/12/02 15:05:04;;;;;;;5.50;2.70;;;;;;;;;;5046779;28;20067;-73
2021/12/02 15:07:35;;;;;;;13.50;4.43;;;;;;;;;;5045228;28;20591;-73
2021/12/02 15:10:24;;;;;;;11.48;5.20;;;;;;;;;;5022435;28;20094;-71
2021/12/02 15:12:57;;;;;;;5.35;2.70;;;;;;;;;;5038487;28;20040;-71
2021/12/02 15:15:24;;;;;;;4.30;1.98;;;;;;;;;;5041894;28;20450;-70
2021/12/02 15:17:55;;;;;;;9.75;3.08;;;;;;;;;;5046652;28;20112;-68
2021/12/02 15:20:31;;;;;;;6.07;2.88;;;;;;;;;;5041737;28;20079;-68
2021/12/02 15:23:07;;;;;;;6.20;3.00;;;;;;;;;;5040989;28;20048;-72
2021/12/02 15:25:39;;;;;;;4.70;2.88;;;;;;;;;;5045028;28;20121;-67
2021/12/02 15:28:10;;;;;;;4.90;2.83;;;;;;;;;;5046325;28;20032;-67